createdAt,value
2019-03-26T00:00:31.479Z,21.81
2019-03-26T00:01:31.447Z,21.79
2019-03-26T00:02:31.437Z,21.82
2019-03-26T00:03:31.425Z,21.83
2019-03-26T00:04:31.416Z,21.79
2019-03-26T00:05:31.426Z,21.79
2019-03-26T00:06:31.396Z,21.81
2019-03-26T00:07:31.379Z,21.83
2019-03-26T00:08:31.371Z,21.79
2019-03-26T00:09:31.355Z,21.81
2019-03-26T00:10:31.369Z,21.81
2019-03-26T00:11:31.333Z,21.79
2019-03-26T00:12:31.321Z,21.85
2019-03-26T00:13:31.309Z,21.78
2019-03-26T00:14:31.299Z,21.81
2019-03-26T00:15:31.308Z,21.81
2019-03-26T00:16:31.279Z,21.81
2019-03-26T00:17:31.265Z,21.90
2019-03-26T00:18:31.254Z,21.82
2019-03-26T00:19:31.245Z,21.79
2019-03-26T00:20:31.252Z,21.79
2019-03-26T00:21:31.223Z,21.83
2019-03-26T00:22:31.211Z,21.78
2019-03-26T00:23:31.199Z,21.88
2019-03-26T00:24:31.209Z,21.82
2019-03-26T00:25:31.263Z,21.79
2019-03-26T00:26:31.190Z,21.79
2019-03-26T00:27:31.154Z,21.82
2019-03-26T00:28:31.140Z,21.82
2019-03-26T00:29:31.130Z,21.85
2019-03-26T00:30:31.120Z,21.85
2019-03-26T00:31:31.129Z,21.81
2019-03-26T00:32:31.096Z,21.81
2019-03-26T00:33:36.659Z,21.83
2019-03-26T00:34:32.073Z,21.85
2019-03-26T00:35:31.063Z,21.82
2019-03-26T00:36:31.072Z,21.85
2019-03-26T00:37:31.039Z,21.81
2019-03-26T00:38:31.062Z,21.82
2019-03-26T00:39:31.018Z,21.92
2019-03-26T00:40:31.006Z,21.94
2019-03-26T00:41:31.015Z,21.78
2019-03-26T00:42:30.983Z,21.88
2019-03-26T00:43:30.974Z,21.90
2019-03-26T00:44:30.960Z,21.79
2019-03-26T00:45:30.949Z,21.92
2019-03-26T00:46:30.960Z,21.79
2019-03-26T00:47:30.926Z,21.85
2019-03-26T00:48:30.916Z,21.78
2019-03-26T00:49:30.904Z,21.83
2019-03-26T00:50:30.894Z,21.81
2019-03-26T00:51:30.903Z,21.81
2019-03-26T00:52:30.869Z,21.88
2019-03-26T00:53:30.859Z,21.97
2019-03-26T00:54:30.847Z,21.94
2019-03-26T00:55:30.836Z,21.85
2019-03-26T00:56:30.846Z,21.91
2019-03-26T00:57:30.813Z,21.91
2019-03-26T00:58:30.801Z,21.79
2019-03-26T00:59:30.790Z,21.95
2019-03-26T01:00:30.782Z,21.90
2019-03-26T01:01:30.789Z,21.91
2019-03-26T01:02:30.756Z,21.94
2019-03-26T01:03:30.745Z,21.88
2019-03-26T01:04:33.101Z,21.94
2019-03-26T01:05:30.722Z,21.90
2019-03-26T01:06:30.731Z,21.95
2019-03-26T01:07:30.699Z,21.90
2019-03-26T01:08:30.689Z,21.92
2019-03-26T01:09:30.678Z,21.88
2019-03-26T01:10:30.665Z,21.90
2019-03-26T01:11:30.654Z,21.85
2019-03-26T01:12:31.285Z,21.88
2019-03-26T01:13:30.632Z,21.92
2019-03-26T01:14:30.619Z,21.94
2019-03-26T01:15:30.613Z,21.97
2019-03-26T01:16:30.596Z,21.91
2019-03-26T01:17:30.607Z,21.94
2019-03-26T01:18:30.578Z,21.90
2019-03-26T01:19:30.562Z,21.92
2019-03-26T01:20:30.551Z,21.92
2019-03-26T01:21:30.545Z,21.97
2019-03-26T01:22:30.550Z,21.99
2019-03-26T01:23:30.516Z,21.92
2019-03-26T01:24:30.505Z,21.92
2019-03-26T01:25:30.493Z,21.94
2019-03-26T01:26:30.482Z,21.85
2019-03-26T01:27:30.493Z,21.95
2019-03-26T01:28:30.460Z,21.94
2019-03-26T01:29:30.450Z,21.94
2019-03-26T01:30:30.439Z,22.01
2019-03-26T01:31:30.430Z,21.91
2019-03-26T01:32:30.437Z,21.92
2019-03-26T01:33:30.406Z,21.95
2019-03-26T01:34:30.393Z,21.94
2019-03-26T01:35:30.381Z,21.91
2019-03-26T01:36:30.370Z,21.85
2019-03-26T01:37:30.381Z,21.94
2019-03-26T01:38:30.348Z,21.98
2019-03-26T01:39:30.337Z,21.94
2019-03-26T01:40:30.325Z,21.91
2019-03-26T01:41:30.314Z,21.94
2019-03-26T01:42:30.326Z,21.98
2019-03-26T01:43:30.292Z,21.98
2019-03-26T01:44:30.280Z,21.98
2019-03-26T01:45:30.269Z,21.99
2019-03-26T01:46:30.258Z,21.97
2019-03-26T01:47:30.269Z,22.01
2019-03-26T01:48:30.237Z,22.01
2019-03-26T01:49:30.223Z,22.02
2019-03-26T01:50:30.212Z,22.01
2019-03-26T01:51:30.202Z,21.92
2019-03-26T01:52:30.212Z,22.01
2019-03-26T01:53:30.179Z,22.01
2019-03-26T01:54:30.172Z,22.02
2019-03-26T01:55:30.179Z,22.04
2019-03-26T01:56:30.145Z,21.98
2019-03-26T01:57:30.136Z,21.94
2019-03-26T01:58:30.143Z,21.94
2019-03-26T01:59:30.113Z,21.95
2019-03-26T02:00:30.100Z,21.99
2019-03-26T02:01:30.090Z,21.98
2019-03-26T02:02:30.078Z,22.06
2019-03-26T02:03:30.173Z,21.98
2019-03-26T02:04:30.057Z,22.13
2019-03-26T02:05:30.043Z,22.06
2019-03-26T02:06:30.033Z,21.99
2019-03-26T02:07:30.022Z,21.99
2019-03-26T02:08:30.031Z,21.98
2019-03-26T02:09:30.005Z,22.02
2019-03-26T02:10:29.988Z,22.06
2019-03-26T02:11:29.977Z,22.09
2019-03-26T02:12:29.965Z,22.04
2019-03-26T02:13:29.976Z,21.98
2019-03-26T02:14:29.942Z,21.98
2019-03-26T02:15:29.932Z,22.04
2019-03-26T02:16:29.920Z,22.01
2019-03-26T02:17:29.908Z,22.06
2019-03-26T02:18:29.918Z,22.04
2019-03-26T02:19:29.923Z,22.06
2019-03-26T02:20:29.965Z,22.02
2019-03-26T02:21:29.863Z,22.04
2019-03-26T02:22:29.852Z,22.01
2019-03-26T02:23:29.863Z,22.09
2019-03-26T02:24:29.830Z,21.99
2019-03-26T02:25:29.820Z,21.98
2019-03-26T02:26:29.807Z,22.02
2019-03-26T02:27:29.795Z,22.12
2019-03-26T02:28:29.807Z,21.98
2019-03-26T02:29:29.774Z,21.95
2019-03-26T02:30:29.916Z,21.97
2019-03-26T02:31:29.752Z,22.09
2019-03-26T02:32:29.739Z,22.04
2019-03-26T02:33:29.750Z,22.01
2019-03-26T02:34:29.720Z,21.99
2019-03-26T02:35:29.722Z,22.02
2019-03-26T02:36:29.708Z,22.01
2019-03-26T02:37:29.686Z,22.07
2019-03-26T02:38:29.829Z,21.98
2019-03-26T02:39:29.662Z,22.04
2019-03-26T02:40:29.687Z,21.99
2019-03-26T02:41:29.638Z,21.97
2019-03-26T02:42:29.631Z,21.99
2019-03-26T02:43:29.621Z,22.02
2019-03-26T02:44:29.635Z,21.97
2019-03-26T02:45:29.599Z,21.99
2019-03-26T02:46:29.583Z,21.95
2019-03-26T02:47:29.576Z,22.01
2019-03-26T02:48:29.563Z,22.02
2019-03-26T02:49:29.572Z,21.99
2019-03-26T02:50:29.540Z,22.01
2019-03-26T02:51:29.533Z,22.02
2019-03-26T02:52:29.516Z,22.06
2019-03-26T02:53:29.506Z,22.01
2019-03-26T02:54:29.515Z,22.01
2019-03-26T02:55:29.483Z,22.06
2019-03-26T02:56:29.472Z,22.04
2019-03-26T02:57:29.461Z,21.99
2019-03-26T02:58:29.448Z,22.01
2019-03-26T02:59:29.467Z,22.02
2019-03-26T03:00:29.426Z,22.04
2019-03-26T03:01:29.415Z,22.02
2019-03-26T03:02:29.404Z,21.97
2019-03-26T03:03:29.398Z,22.04
2019-03-26T03:04:29.404Z,22.04
2019-03-26T03:05:35.455Z,22.01
2019-03-26T03:06:30.358Z,22.04
2019-03-26T03:07:29.349Z,22.01
2019-03-26T03:08:29.339Z,22.02
2019-03-26T03:09:29.353Z,21.98
2019-03-26T03:10:29.320Z,22.01
2019-03-26T03:11:29.309Z,22.02
2019-03-26T03:12:29.293Z,21.95
2019-03-26T03:13:29.281Z,22.04
2019-03-26T03:14:29.297Z,22.04
2019-03-26T03:15:29.265Z,21.99
2019-03-26T03:16:29.248Z,21.95
2019-03-26T03:17:29.239Z,21.99
2019-03-26T03:18:29.234Z,21.99
2019-03-26T03:19:29.239Z,22.04
2019-03-26T03:20:29.202Z,21.97
2019-03-26T03:21:29.193Z,22.02
2019-03-26T03:22:29.183Z,22.04
2019-03-26T03:23:29.168Z,22.04
2019-03-26T03:24:29.184Z,22.04
2019-03-26T03:25:29.148Z,21.99
2019-03-26T03:26:29.136Z,22.01
2019-03-26T03:27:29.123Z,21.98
2019-03-26T03:28:29.113Z,21.98
2019-03-26T03:29:29.133Z,21.98
2019-03-26T03:30:29.093Z,21.95
2019-03-26T03:31:29.085Z,22.09
2019-03-26T03:32:29.077Z,22.02
2019-03-26T03:33:29.057Z,21.99
2019-03-26T03:34:29.076Z,21.98
2019-03-26T03:35:29.037Z,22.04
2019-03-26T03:36:29.025Z,22.04
2019-03-26T03:37:29.013Z,21.99
2019-03-26T03:38:29.000Z,22.04
2019-03-26T03:39:29.012Z,22.07
2019-03-26T03:40:28.979Z,22.02
2019-03-26T03:41:28.967Z,21.98
2019-03-26T03:42:28.955Z,22.06
2019-03-26T03:43:28.945Z,22.02
2019-03-26T03:44:28.955Z,21.98
2019-03-26T03:45:28.922Z,22.07
2019-03-26T03:46:28.910Z,22.04
2019-03-26T03:47:28.925Z,21.94
2019-03-26T03:48:28.887Z,22.06
2019-03-26T03:49:28.879Z,21.98
2019-03-26T03:50:28.888Z,22.02
2019-03-26T03:51:28.854Z,22.01
2019-03-26T03:52:28.850Z,22.07
2019-03-26T03:53:28.837Z,22.01
2019-03-26T03:54:28.820Z,22.02
2019-03-26T03:55:28.840Z,21.99
2019-03-26T03:56:28.800Z,22.06
2019-03-26T03:57:28.787Z,22.01
2019-03-26T03:58:28.776Z,21.99
2019-03-26T03:59:28.764Z,22.06
2019-03-26T04:00:28.774Z,22.02
2019-03-26T04:01:28.741Z,21.99
2019-03-26T04:02:28.731Z,22.04
2019-03-26T04:03:28.720Z,22.04
2019-03-26T04:04:28.708Z,22.12
2019-03-26T04:05:28.717Z,22.06
2019-03-26T04:06:28.815Z,22.04
2019-03-26T04:07:28.673Z,22.02
2019-03-26T04:08:28.661Z,22.09
2019-03-26T04:09:28.652Z,22.07
2019-03-26T04:10:28.662Z,21.99
2019-03-26T04:11:28.628Z,22.01
2019-03-26T04:12:28.638Z,22.01
2019-03-26T04:13:28.605Z,22.09
2019-03-26T04:14:28.598Z,22.01
2019-03-26T04:15:28.583Z,22.02
2019-03-26T04:16:28.593Z,22.02
2019-03-26T04:17:28.559Z,22.13
2019-03-26T04:18:28.548Z,22.01
2019-03-26T04:19:28.540Z,22.01
2019-03-26T04:20:28.528Z,21.99
2019-03-26T04:21:28.539Z,22.04
2019-03-26T04:22:28.504Z,21.97
2019-03-26T04:23:28.502Z,21.98
2019-03-26T04:24:28.481Z,22.01
2019-03-26T04:25:28.472Z,22.01
2019-03-26T04:26:28.485Z,21.99
2019-03-26T04:27:28.448Z,22.04
2019-03-26T04:28:28.435Z,22.01
2019-03-26T04:29:28.427Z,21.99
2019-03-26T04:30:28.416Z,21.97
2019-03-26T04:31:28.425Z,22.01
2019-03-26T04:32:28.393Z,22.07
2019-03-26T04:33:28.381Z,21.97
2019-03-26T04:34:28.370Z,22.01
2019-03-26T04:35:28.358Z,22.01
2019-03-26T04:36:28.375Z,21.99
2019-03-26T04:37:28.336Z,22.04
2019-03-26T04:38:28.325Z,21.98
2019-03-26T04:39:28.313Z,22.10
2019-03-26T04:40:28.307Z,21.99
2019-03-26T04:41:28.312Z,21.98
2019-03-26T04:42:28.280Z,21.97
2019-03-26T04:43:28.268Z,21.92
2019-03-26T04:44:28.257Z,21.95
2019-03-26T04:45:28.244Z,21.97
2019-03-26T04:46:28.255Z,22.04
2019-03-26T04:47:28.224Z,21.98
2019-03-26T04:48:28.212Z,21.97
2019-03-26T04:49:28.201Z,22.09
2019-03-26T04:50:28.189Z,21.99
2019-03-26T04:51:28.206Z,22.04
2019-03-26T04:52:28.191Z,22.07
2019-03-26T04:53:28.155Z,22.01
2019-03-26T04:54:28.144Z,22.04
2019-03-26T04:55:28.133Z,21.94
2019-03-26T04:56:28.120Z,21.99
2019-03-26T04:57:28.132Z,22.01
2019-03-26T04:58:28.100Z,21.97
2019-03-26T04:59:28.087Z,22.02
2019-03-26T05:00:28.076Z,22.07
2019-03-26T05:01:28.065Z,21.99
2019-03-26T05:02:28.076Z,21.99
2019-03-26T05:03:28.042Z,21.97
2019-03-26T05:04:28.036Z,21.98
2019-03-26T05:05:28.020Z,21.98
2019-03-26T05:06:37.497Z,21.98
2019-03-26T05:07:29.017Z,21.97
2019-03-26T05:08:27.990Z,22.02
2019-03-26T05:09:27.975Z,21.99
2019-03-26T05:10:27.963Z,22.01
2019-03-26T05:11:27.951Z,21.98
2019-03-26T05:12:27.961Z,21.98
2019-03-26T05:13:27.929Z,22.04
2019-03-26T05:14:27.931Z,21.99
2019-03-26T05:15:27.905Z,21.99
2019-03-26T05:16:27.901Z,21.94
2019-03-26T05:17:27.905Z,21.97
2019-03-26T05:18:27.873Z,22.06
2019-03-26T05:19:27.861Z,21.94
2019-03-26T05:20:27.849Z,22.07
2019-03-26T05:21:27.841Z,22.07
2019-03-26T05:22:27.848Z,22.04
2019-03-26T05:23:27.816Z,22.07
2019-03-26T05:24:27.807Z,22.01
2019-03-26T05:25:27.794Z,21.99
2019-03-26T05:26:27.782Z,22.09
2019-03-26T05:27:27.801Z,21.97
2019-03-26T05:28:27.772Z,21.99
2019-03-26T05:29:27.748Z,22.02
2019-03-26T05:30:27.737Z,21.98
2019-03-26T05:31:27.726Z,21.98
2019-03-26T05:32:27.750Z,21.99
2019-03-26T05:33:27.708Z,22.01
2019-03-26T05:34:27.692Z,22.07
2019-03-26T05:35:27.682Z,22.04
2019-03-26T05:36:27.674Z,21.98
2019-03-26T05:37:27.660Z,21.98
2019-03-26T05:38:27.670Z,21.97
2019-03-26T05:39:27.637Z,21.92
2019-03-26T05:40:27.627Z,21.99
2019-03-26T05:41:27.613Z,22.02
2019-03-26T05:42:27.604Z,21.98
2019-03-26T05:43:27.614Z,22.02
2019-03-26T05:44:27.584Z,22.02
2019-03-26T05:45:27.570Z,21.90
2019-03-26T05:46:27.562Z,21.97
2019-03-26T05:47:27.548Z,21.90
2019-03-26T05:48:27.558Z,21.97
2019-03-26T05:49:27.525Z,21.99
2019-03-26T05:50:27.513Z,21.95
2019-03-26T05:51:27.504Z,21.97
2019-03-26T05:52:27.493Z,21.97
2019-03-26T05:53:27.501Z,21.97
2019-03-26T05:54:27.468Z,22.04
2019-03-26T05:55:27.460Z,21.99
2019-03-26T05:56:30.419Z,21.94
2019-03-26T05:57:27.434Z,21.99
2019-03-26T05:58:27.445Z,21.97
2019-03-26T05:59:27.414Z,21.94
2019-03-26T06:00:27.401Z,21.99
2019-03-26T06:01:27.403Z,21.97
2019-03-26T06:02:27.378Z,21.99
2019-03-26T06:03:27.389Z,22.01
2019-03-26T06:04:27.360Z,21.94
2019-03-26T06:05:27.345Z,21.94
2019-03-26T06:06:27.335Z,22.04
2019-03-26T06:07:27.324Z,21.97
2019-03-26T06:08:27.333Z,22.01
2019-03-26T06:09:27.333Z,21.97
2019-03-26T06:10:27.289Z,22.01
2019-03-26T06:11:27.278Z,21.94
2019-03-26T06:12:27.267Z,21.99
2019-03-26T06:13:27.278Z,22.06
2019-03-26T06:14:27.252Z,22.04
2019-03-26T06:15:27.233Z,21.98
2019-03-26T06:16:37.860Z,21.94
2019-03-26T06:17:28.210Z,22.04
2019-03-26T06:18:27.223Z,21.99
2019-03-26T06:19:27.188Z,21.99
2019-03-26T06:20:27.177Z,21.91
2019-03-26T06:21:27.166Z,21.95
2019-03-26T06:22:27.164Z,21.95
2019-03-26T06:23:27.167Z,22.01
2019-03-26T06:24:27.134Z,21.97
2019-03-26T06:25:27.124Z,21.98
2019-03-26T06:26:27.109Z,22.01
2019-03-26T06:27:27.102Z,21.95
2019-03-26T06:28:27.116Z,21.92
2019-03-26T06:29:27.077Z,21.91
2019-03-26T06:30:27.065Z,21.95
2019-03-26T06:31:27.056Z,22.01
2019-03-26T06:32:27.042Z,21.99
2019-03-26T06:33:27.034Z,22.02
2019-03-26T06:34:27.041Z,22.04
2019-03-26T06:35:27.009Z,22.02
2019-03-26T06:36:26.997Z,22.06
2019-03-26T06:37:26.986Z,21.98
2019-03-26T06:38:26.975Z,22.02
2019-03-26T06:39:26.984Z,22.04
2019-03-26T06:40:26.952Z,22.04
2019-03-26T06:41:26.942Z,22.02
2019-03-26T06:42:26.930Z,22.01
2019-03-26T06:43:26.922Z,21.98
2019-03-26T06:44:26.929Z,21.99
2019-03-26T06:45:26.897Z,22.01
2019-03-26T06:46:26.885Z,21.91
2019-03-26T06:47:26.874Z,22.04
2019-03-26T06:48:26.864Z,21.98
2019-03-26T06:49:26.874Z,21.95
2019-03-26T06:50:26.845Z,22.07
2019-03-26T06:51:26.830Z,21.95
2019-03-26T06:52:26.819Z,21.92
2019-03-26T06:53:26.807Z,21.98
2019-03-26T06:54:26.817Z,22.06
2019-03-26T06:55:26.786Z,22.01
2019-03-26T06:56:26.773Z,22.04
2019-03-26T06:57:35.561Z,22.09
2019-03-26T06:58:27.751Z,22.06
2019-03-26T06:59:26.775Z,22.16
2019-03-26T07:00:26.759Z,22.19
2019-03-26T07:01:26.718Z,22.12
2019-03-26T07:02:26.707Z,22.16
2019-03-26T07:03:26.699Z,22.16
2019-03-26T07:04:26.710Z,22.20
2019-03-26T07:05:26.675Z,22.20
2019-03-26T07:06:26.661Z,22.14
2019-03-26T07:07:31.671Z,22.14
2019-03-26T07:08:27.640Z,22.16
2019-03-26T07:09:27.079Z,22.17
2019-03-26T07:10:26.617Z,22.17
2019-03-26T07:11:26.610Z,22.22
2019-03-26T07:12:26.593Z,22.14
2019-03-26T07:13:26.583Z,22.16
2019-03-26T07:14:26.592Z,22.22
2019-03-26T07:15:26.579Z,22.14
2019-03-26T07:16:26.548Z,22.16
2019-03-26T07:17:27.321Z,22.14
2019-03-26T07:18:26.525Z,22.17
2019-03-26T07:19:26.515Z,22.16
2019-03-26T07:20:26.525Z,22.23
2019-03-26T07:21:26.490Z,22.09
2019-03-26T07:22:26.479Z,22.17
2019-03-26T07:23:26.468Z,22.20
2019-03-26T07:24:26.471Z,22.20
2019-03-26T07:25:26.466Z,22.12
2019-03-26T07:26:26.435Z,22.17
2019-03-26T07:27:26.425Z,22.17
2019-03-26T07:28:26.412Z,22.22
2019-03-26T07:29:26.404Z,22.17
2019-03-26T07:30:26.410Z,22.20
2019-03-26T07:31:26.379Z,22.16
2019-03-26T07:32:26.367Z,22.16
2019-03-26T07:33:26.355Z,22.16
2019-03-26T07:34:26.345Z,22.14
2019-03-26T07:35:26.354Z,22.10
2019-03-26T07:36:26.325Z,22.19
2019-03-26T07:37:26.312Z,22.25
2019-03-26T07:38:26.302Z,22.22
2019-03-26T07:39:26.294Z,22.17
2019-03-26T07:40:26.300Z,22.20
2019-03-26T07:41:26.270Z,22.14
2019-03-26T07:42:26.260Z,22.17
2019-03-26T07:43:26.244Z,22.14
2019-03-26T07:44:26.232Z,22.16
2019-03-26T07:45:26.243Z,22.12
2019-03-26T07:46:26.211Z,22.17
2019-03-26T07:47:26.200Z,22.22
2019-03-26T07:48:26.188Z,22.17
2019-03-26T07:49:26.177Z,22.25
2019-03-26T07:50:26.187Z,22.28
2019-03-26T07:51:26.155Z,22.17
2019-03-26T07:52:26.144Z,22.29
2019-03-26T07:53:26.153Z,22.20
2019-03-26T07:54:26.121Z,22.23
2019-03-26T07:55:26.131Z,22.23
2019-03-26T07:56:26.099Z,22.29
2019-03-26T07:57:26.087Z,22.34
2019-03-26T07:58:26.077Z,22.27
2019-03-26T07:59:26.064Z,22.23
2019-03-26T08:00:26.075Z,22.31
2019-03-26T08:01:26.063Z,22.32
2019-03-26T08:02:26.035Z,22.34
2019-03-26T08:03:26.019Z,22.34
2019-03-26T08:04:26.008Z,22.29
2019-03-26T08:05:29.931Z,22.29
2019-03-26T08:06:26.006Z,22.37
2019-03-26T08:07:25.975Z,22.29
2019-03-26T08:08:25.964Z,22.34
2019-03-26T08:09:26.106Z,22.31
2019-03-26T08:10:25.941Z,22.37
2019-03-26T08:11:25.950Z,22.37
2019-03-26T08:12:25.920Z,22.32
2019-03-26T08:13:25.908Z,22.39
2019-03-26T08:14:25.937Z,22.37
2019-03-26T08:15:25.914Z,22.38
2019-03-26T08:16:25.923Z,22.39
2019-03-26T08:17:25.880Z,22.38
2019-03-26T08:18:25.850Z,22.34
2019-03-26T08:19:25.840Z,22.38
2019-03-26T08:20:25.829Z,22.41
2019-03-26T08:21:25.840Z,22.43
2019-03-26T08:22:25.807Z,22.39
2019-03-26T08:23:25.795Z,22.44
2019-03-26T08:24:25.784Z,22.32
2019-03-26T08:25:25.773Z,22.34
2019-03-26T08:26:25.782Z,22.32
2019-03-26T08:27:25.751Z,22.39
2019-03-26T08:28:25.739Z,22.37
2019-03-26T08:29:25.731Z,22.38
2019-03-26T08:30:25.717Z,22.31
2019-03-26T08:31:25.727Z,22.39
2019-03-26T08:32:25.694Z,22.39
2019-03-26T08:33:25.684Z,22.32
2019-03-26T08:34:25.672Z,22.37
2019-03-26T08:35:25.660Z,22.38
2019-03-26T08:36:25.671Z,22.32
2019-03-26T08:37:25.637Z,22.47
2019-03-26T08:38:25.630Z,22.37
2019-03-26T08:39:25.616Z,22.52
2019-03-26T08:40:25.605Z,22.49
2019-03-26T08:41:25.615Z,22.52
2019-03-26T08:42:25.582Z,22.57
2019-03-26T08:43:25.569Z,22.60
2019-03-26T08:44:25.646Z,22.57
2019-03-26T08:45:25.552Z,22.59
2019-03-26T08:46:25.560Z,22.59
2019-03-26T08:47:25.551Z,22.71
2019-03-26T08:48:25.514Z,22.69
2019-03-26T08:49:30.735Z,22.65
2019-03-26T08:50:26.489Z,22.74
2019-03-26T08:51:25.495Z,22.80
2019-03-26T08:52:25.493Z,22.83
2019-03-26T08:53:25.457Z,22.86
2019-03-26T08:54:25.453Z,22.82
2019-03-26T08:55:25.434Z,22.69
2019-03-26T08:56:25.423Z,22.83
2019-03-26T08:57:25.432Z,22.80
2019-03-26T08:58:25.414Z,22.84
2019-03-26T08:59:25.388Z,22.87
2019-03-26T09:00:25.376Z,22.80
2019-03-26T09:01:25.366Z,22.89
2019-03-26T09:02:25.375Z,22.83
2019-03-26T09:03:25.344Z,22.90
2019-03-26T09:04:26.984Z,22.86
2019-03-26T09:05:25.321Z,22.82
2019-03-26T09:06:25.321Z,22.82
2019-03-26T09:07:25.320Z,22.80
2019-03-26T09:08:25.903Z,22.84
2019-03-26T09:09:25.275Z,22.84
2019-03-26T09:10:25.272Z,22.87
2019-03-26T09:11:25.256Z,22.83
2019-03-26T09:12:25.297Z,22.87
2019-03-26T09:13:25.230Z,22.87
2019-03-26T09:14:25.218Z,22.82
2019-03-26T09:15:25.206Z,22.78
2019-03-26T09:16:25.195Z,22.87
2019-03-26T09:17:25.204Z,22.78
2019-03-26T09:18:25.176Z,22.83
2019-03-26T09:19:25.163Z,22.83
2019-03-26T09:20:25.151Z,22.82
2019-03-26T09:21:25.139Z,22.78
2019-03-26T09:22:25.152Z,22.77
2019-03-26T09:23:25.118Z,22.82
2019-03-26T09:24:25.108Z,22.80
2019-03-26T09:25:25.095Z,22.82
2019-03-26T09:26:25.084Z,22.75
2019-03-26T09:27:25.094Z,22.84
2019-03-26T09:28:25.064Z,22.78
2019-03-26T09:29:25.051Z,22.82
2019-03-26T09:30:25.038Z,22.83
2019-03-26T09:31:25.027Z,22.80
2019-03-26T09:32:25.040Z,22.82
2019-03-26T09:33:25.027Z,22.86
2019-03-26T09:34:24.993Z,22.82
2019-03-26T09:35:24.983Z,22.80
2019-03-26T09:36:24.973Z,22.84
2019-03-26T09:37:24.962Z,22.78
2019-03-26T09:38:38.003Z,22.87
2019-03-26T09:39:25.936Z,22.82
2019-03-26T09:40:24.927Z,22.86
2019-03-26T09:41:24.914Z,22.84
2019-03-26T09:42:24.903Z,22.82
2019-03-26T09:43:24.914Z,22.86
2019-03-26T09:44:24.881Z,22.83
2019-03-26T09:45:24.870Z,22.84
2019-03-26T09:46:24.859Z,22.83
2019-03-26T09:47:24.848Z,22.82
2019-03-26T09:48:24.857Z,22.83
2019-03-26T09:49:24.824Z,22.87
2019-03-26T09:50:24.815Z,22.80
2019-03-26T09:51:24.811Z,22.87
2019-03-26T09:52:24.794Z,22.80
2019-03-26T09:53:24.800Z,22.80
2019-03-26T09:54:24.769Z,22.77
2019-03-26T09:55:24.758Z,22.80
2019-03-26T09:56:29.421Z,22.93
2019-03-26T09:57:25.734Z,22.89
2019-03-26T09:58:24.746Z,22.80
2019-03-26T09:59:24.736Z,22.82
2019-03-26T10:00:24.743Z,22.89
2019-03-26T10:01:24.691Z,22.93
2019-03-26T10:02:24.680Z,22.87
2019-03-26T10:03:24.688Z,22.94
2019-03-26T10:04:24.661Z,22.94
2019-03-26T10:05:24.645Z,22.93
2019-03-26T10:06:24.634Z,22.90
2019-03-26T10:07:24.624Z,22.93
2019-03-26T10:08:24.637Z,22.92
2019-03-26T10:09:24.602Z,23.02
2019-03-26T10:10:24.590Z,22.96
2019-03-26T10:11:24.578Z,22.97
2019-03-26T10:12:24.567Z,22.90
2019-03-26T10:13:24.694Z,22.93
2019-03-26T10:14:24.545Z,22.90
2019-03-26T10:15:24.533Z,22.93
2019-03-26T10:16:24.522Z,23.01
2019-03-26T10:17:24.511Z,23.01
2019-03-26T10:18:24.523Z,23.05
2019-03-26T10:19:24.489Z,23.02
2019-03-26T10:20:24.477Z,23.01
2019-03-26T10:21:24.468Z,23.05
2019-03-26T10:22:24.456Z,22.99
2019-03-26T10:23:24.470Z,23.02
2019-03-26T10:24:24.433Z,23.02
2019-03-26T10:25:24.422Z,23.11
2019-03-26T10:26:24.415Z,23.04
2019-03-26T10:27:24.490Z,22.99
2019-03-26T10:28:24.462Z,23.07
2019-03-26T10:29:30.183Z,23.11
2019-03-26T10:30:25.441Z,23.04
2019-03-26T10:31:24.355Z,23.07
2019-03-26T10:32:24.430Z,23.11
2019-03-26T10:33:24.366Z,23.04
2019-03-26T10:34:24.344Z,23.04
2019-03-26T10:35:24.314Z,23.14
2019-03-26T10:36:24.300Z,23.11
2019-03-26T10:37:24.289Z,23.11
2019-03-26T10:38:24.280Z,23.14
2019-03-26T10:39:24.290Z,23.14
2019-03-26T10:40:24.294Z,23.20
2019-03-26T10:41:24.244Z,23.15
2019-03-26T10:42:24.234Z,23.24
2019-03-26T10:43:24.223Z,23.26
2019-03-26T10:44:24.231Z,23.34
2019-03-26T10:45:24.200Z,23.31
2019-03-26T10:46:24.198Z,23.31
2019-03-26T10:47:24.178Z,23.32
2019-03-26T10:48:24.169Z,23.43
2019-03-26T10:49:24.176Z,23.47
2019-03-26T10:50:24.145Z,23.39
2019-03-26T10:51:24.134Z,23.39
2019-03-26T10:52:24.132Z,23.45
2019-03-26T10:53:24.111Z,23.35
2019-03-26T10:54:24.120Z,23.47
2019-03-26T10:55:24.088Z,23.35
2019-03-26T10:56:24.080Z,23.38
2019-03-26T10:57:24.072Z,23.39
2019-03-26T10:58:24.056Z,23.42
2019-03-26T10:59:24.065Z,23.45
2019-03-26T11:00:24.034Z,23.43
2019-03-26T11:01:24.025Z,23.42
2019-03-26T11:02:24.015Z,23.32
2019-03-26T11:03:24.000Z,23.38
2019-03-26T11:04:24.011Z,23.40
2019-03-26T11:05:23.977Z,23.29
2019-03-26T11:06:23.967Z,23.39
2019-03-26T11:07:23.956Z,23.34
2019-03-26T11:08:23.946Z,23.39
2019-03-26T11:09:27.042Z,23.35
2019-03-26T11:10:23.925Z,23.39
2019-03-26T11:11:23.912Z,23.38
2019-03-26T11:12:23.900Z,23.34
2019-03-26T11:13:23.890Z,23.38
2019-03-26T11:14:23.916Z,23.39
2019-03-26T11:15:23.870Z,23.32
2019-03-26T11:16:23.857Z,23.43
2019-03-26T11:17:23.845Z,23.35
2019-03-26T11:18:23.834Z,23.32
2019-03-26T11:19:23.823Z,23.34
2019-03-26T11:20:23.836Z,23.35
2019-03-26T11:21:23.802Z,23.29
2019-03-26T11:22:23.789Z,23.26
2019-03-26T11:23:23.778Z,23.22
2019-03-26T11:24:23.766Z,23.24
2019-03-26T11:25:23.777Z,23.27
2019-03-26T11:26:23.745Z,23.26
2019-03-26T11:27:23.733Z,23.31
2019-03-26T11:28:23.724Z,23.22
2019-03-26T11:29:23.712Z,23.26
2019-03-26T11:30:23.720Z,23.31
2019-03-26T11:31:23.691Z,23.26
2019-03-26T11:32:23.684Z,23.26
2019-03-26T11:33:23.800Z,23.23
2019-03-26T11:34:23.656Z,23.26
2019-03-26T11:35:23.665Z,23.32
2019-03-26T11:36:23.632Z,23.31
2019-03-26T11:37:23.624Z,23.22
2019-03-26T11:38:23.614Z,23.23
2019-03-26T11:39:32.748Z,23.31
2019-03-26T11:40:24.612Z,23.24
2019-03-26T11:41:23.579Z,23.15
2019-03-26T11:42:23.568Z,23.12
2019-03-26T11:43:23.555Z,23.14
2019-03-26T11:44:23.701Z,23.22
2019-03-26T11:45:23.554Z,23.15
2019-03-26T11:46:23.522Z,23.14
2019-03-26T11:47:23.510Z,23.14
2019-03-26T11:48:24.086Z,23.26
2019-03-26T11:49:23.505Z,23.22
2019-03-26T11:50:23.497Z,23.19
2019-03-26T11:51:23.465Z,23.19
2019-03-26T11:52:23.458Z,23.20
2019-03-26T11:53:23.444Z,23.14
2019-03-26T11:54:23.431Z,23.15
2019-03-26T11:55:23.446Z,23.15
2019-03-26T11:56:23.411Z,23.12
2019-03-26T11:57:23.402Z,23.17
2019-03-26T11:58:30.490Z,23.20
2019-03-26T11:59:24.377Z,23.14
2019-03-26T12:00:23.387Z,23.17
2019-03-26T12:01:23.356Z,23.19
2019-03-26T12:02:23.366Z,23.17
2019-03-26T12:03:23.331Z,23.20
2019-03-26T12:04:23.321Z,23.12
2019-03-26T12:05:23.330Z,23.19
2019-03-26T12:06:23.315Z,23.11
2019-03-26T12:07:23.296Z,23.17
2019-03-26T12:08:23.275Z,23.15
2019-03-26T12:09:23.264Z,23.15
2019-03-26T12:10:23.275Z,23.19
2019-03-26T12:11:23.245Z,23.22
2019-03-26T12:12:23.231Z,23.19
2019-03-26T12:13:23.226Z,23.19
2019-03-26T12:14:23.209Z,23.15
2019-03-26T12:15:23.226Z,23.17
2019-03-26T12:16:23.186Z,23.20
2019-03-26T12:17:23.175Z,23.19
2019-03-26T12:18:23.166Z,23.23
2019-03-26T12:19:23.154Z,23.23
2019-03-26T12:20:23.166Z,23.22
2019-03-26T12:21:23.131Z,23.20
2019-03-26T12:22:23.122Z,23.24
2019-03-26T12:23:23.111Z,23.32
2019-03-26T12:24:23.128Z,23.20
2019-03-26T12:25:23.091Z,23.29
2019-03-26T12:26:23.082Z,23.22
2019-03-26T12:27:23.085Z,23.12
2019-03-26T12:28:23.053Z,22.64
2019-03-26T12:29:23.209Z,21.75
2019-03-26T12:30:23.067Z,20.96
2019-03-26T12:31:23.020Z,20.27
2019-03-26T12:32:23.090Z,20.06
2019-03-26T12:33:22.998Z,19.80
2019-03-26T12:34:23.061Z,19.66
2019-03-26T12:35:22.977Z,19.51
2019-03-26T12:36:22.963Z,19.61
2019-03-26T12:37:22.989Z,19.65
2019-03-26T12:38:22.958Z,19.88
2019-03-26T12:39:22.939Z,20.12
2019-03-26T12:40:22.920Z,20.30
2019-03-26T12:41:22.910Z,20.58
2019-03-26T12:42:22.963Z,20.87
2019-03-26T12:43:22.916Z,20.93
2019-03-26T12:44:22.884Z,21.09
2019-03-26T12:45:22.863Z,21.24
2019-03-26T12:46:22.856Z,21.42
2019-03-26T12:47:22.852Z,21.50
2019-03-26T12:48:22.853Z,21.72
2019-03-26T12:49:22.826Z,21.83
2019-03-26T12:50:22.806Z,21.92
2019-03-26T12:51:22.801Z,22.10
2019-03-26T12:52:22.791Z,22.07